createdAt,value
2023-04-02T00:00:19.989Z,100.00
2023-04-02T00:03:23.724Z,100.00
2023-04-02T00:06:40.622Z,100.00
2023-04-02T00:09:44.325Z,100.00
2023-04-02T00:13:20.021Z,100.00
2023-04-02T00:16:25.233Z,100.00
2023-04-02T00:19:53.250Z,100.00
2023-04-02T00:22:56.980Z,100.00
2023-04-02T00:26:00.464Z,100.00
2023-04-02T00:29:06.391Z,100.00
2023-04-02T00:32:20.409Z,100.00
2023-04-02T00:35:29.831Z,100.00
2023-04-02T00:38:35.478Z,100.00
2023-04-02T00:41:39.229Z,100.00
2023-04-02T00:44:45.282Z,99.00
2023-04-02T00:47:48.747Z,98.28
2023-04-02T00:50:54.594Z,98.27
2023-04-02T00:54:04.117Z,98.91
2023-04-02T00:57:16.583Z,98.70
2023-04-02T01:00:20.494Z,99.68
2023-04-02T01:03:37.486Z,99.68
2023-04-02T01:06:44.132Z,99.52
2023-04-02T01:10:04.265Z,99.59
2023-04-02T01:13:30.801Z,98.13
2023-04-02T01:16:50.535Z,98.31
2023-04-02T01:20:36.891Z,98.94
2023-04-02T01:23:49.491Z,95.49
2023-04-02T01:27:01.180Z,96.28
2023-04-02T01:30:07.499Z,93.48
2023-04-02T01:33:12.649Z,91.72
2023-04-02T01:36:20.708Z,91.68
2023-04-02T01:39:42.848Z,90.23
2023-04-02T01:42:58.416Z,91.49
2023-04-02T01:46:24.132Z,91.13
2023-04-02T01:49:28.786Z,91.28
2023-04-02T01:52:39.637Z,90.66
2023-04-02T01:55:47.226Z,90.97
2023-04-02T01:58:51.040Z,91.29
2023-04-02T02:02:03.930Z,91.33
2023-04-02T02:05:17.621Z,92.30
2023-04-02T02:08:43.010Z,92.50
2023-04-02T02:11:47.023Z,92.17
2023-04-02T02:14:52.394Z,92.66
2023-04-02T02:18:03.259Z,92.37
2023-04-02T02:21:08.537Z,92.57
2023-04-02T02:24:29.322Z,92.45
2023-04-02T02:28:01.637Z,91.42
2023-04-02T02:31:18.644Z,91.02
2023-04-02T02:34:30.050Z,91.83
2023-04-02T02:37:42.038Z,92.00
2023-04-02T02:40:48.700Z,91.52
2023-04-02T02:44:05.096Z,92.49
2023-04-02T02:47:23.719Z,93.59
2023-04-02T02:50:31.791Z,94.63
2023-04-02T02:53:53.038Z,95.31
2023-04-02T02:57:04.271Z,96.10
2023-04-02T03:00:11.793Z,96.71
2023-04-02T03:03:24.259Z,97.78
2023-04-02T03:06:28.319Z,98.89
2023-04-02T03:10:00.173Z,99.33
2023-04-02T03:13:23.891Z,100.00
2023-04-02T03:16:45.899Z,100.00
2023-04-02T03:20:01.923Z,100.00
2023-04-02T03:23:13.079Z,100.00
2023-04-02T03:26:34.260Z,100.00
2023-04-02T03:29:44.046Z,100.00
2023-04-02T03:32:52.726Z,100.00
2023-04-02T03:36:25.875Z,100.00
2023-04-02T03:39:53.602Z,100.00
2023-04-02T03:43:20.680Z,100.00
2023-04-02T03:46:37.250Z,100.00
2023-04-02T03:49:48.224Z,100.00
2023-04-02T03:52:52.142Z,100.00
2023-04-02T03:55:57.288Z,100.00
2023-04-02T03:59:41.618Z,100.00
2023-04-02T04:02:53.530Z,100.00
2023-04-02T04:06:02.520Z,100.00
2023-04-02T04:09:22.908Z,100.00
2023-04-02T04:12:47.179Z,100.00
2023-04-02T04:16:02.990Z,100.00
2023-04-02T04:19:18.265Z,100.00
2023-04-02T04:22:33.948Z,100.00
2023-04-02T04:25:38.184Z,100.00
2023-04-02T04:29:17.091Z,100.00
2023-04-02T04:32:35.431Z,100.00
2023-04-02T04:35:46.976Z,100.00
2023-04-02T04:38:55.745Z,100.00
2023-04-02T04:42:02.780Z,100.00
2023-04-02T04:45:09.579Z,100.00
2023-04-02T04:48:21.482Z,100.00
2023-04-02T04:51:53.666Z,100.00
2023-04-02T04:54:57.685Z,100.00
2023-04-02T04:58:08.695Z,100.00
2023-04-02T05:01:38.567Z,100.00
2023-04-02T05:04:44.744Z,100.00
2023-04-02T05:07:59.856Z,100.00
2023-04-02T05:11:40.173Z,100.00
2023-04-02T05:14:58.364Z,100.00
2023-04-02T05:18:22.987Z,100.00
2023-04-02T05:21:57.745Z,100.00
2023-04-02T05:25:17.079Z,100.00
2023-04-02T05:28:30.787Z,100.00
2023-04-02T05:32:17.907Z,100.00
2023-04-02T05:35:29.903Z,100.00
2023-04-02T05:38:37.547Z,100.00
2023-04-02T05:41:45.092Z,100.00
2023-04-02T05:45:16.258Z,100.00
2023-04-02T05:48:43.449Z,100.00
2023-04-02T05:51:52.948Z,100.00
2023-04-02T05:55:19.736Z,100.00
2023-04-02T05:58:36.744Z,100.00
2023-04-02T06:01:51.988Z,100.00
2023-04-02T06:05:11.670Z,100.00
2023-04-02T06:08:24.126Z,97.96
2023-04-02T06:11:37.439Z,96.20
2023-04-02T06:14:41.182Z,90.50
2023-04-02T06:18:06.541Z,85.83
2023-04-02T06:21:15.589Z,83.02
2023-04-02T06:24:24.526Z,80.89
2023-04-02T06:27:29.669Z,80.94
2023-04-02T06:30:39.719Z,78.41
2023-04-02T06:33:44.069Z,76.63
2023-04-02T06:36:49.144Z,74.51
2023-04-02T06:39:53.494Z,73.11
2023-04-02T06:42:59.956Z,71.17
2023-04-02T06:46:11.265Z,70.18
2023-04-02T06:49:31.069Z,69.73
2023-04-02T06:52:44.846Z,70.10
2023-04-02T06:56:03.435Z,68.22
2023-04-02T06:59:07.937Z,67.66
2023-04-02T07:02:25.296Z,68.30
2023-04-02T07:05:28.944Z,66.04
2023-04-02T07:08:32.765Z,64.90
2023-04-02T07:11:36.853Z,64.91
2023-04-02T07:14:40.993Z,66.72
2023-04-02T07:17:44.319Z,64.11
2023-04-02T07:20:47.869Z,64.15
2023-04-02T07:23:51.396Z,64.27
2023-04-02T07:26:55.957Z,62.58
2023-04-02T07:30:00.134Z,62.93
2023-04-02T07:33:03.596Z,63.90
2023-04-02T07:36:07.042Z,63.01
2023-04-02T07:39:10.778Z,63.43
2023-04-02T07:42:13.874Z,62.74
2023-04-02T07:45:17.277Z,61.45
2023-04-02T07:48:20.774Z,61.72
2023-04-02T07:51:27.917Z,63.17
2023-04-02T07:54:33.454Z,64.25
2023-04-02T07:57:44.286Z,65.29
2023-04-02T08:00:48.932Z,62.84
2023-04-02T08:03:57.746Z,60.01
2023-04-02T08:07:01.739Z,59.46
2023-04-02T08:10:06.734Z,57.38
2023-04-02T08:13:10.061Z,55.78
2023-04-02T08:16:13.791Z,56.66
2023-04-02T08:19:17.991Z,57.29
2023-04-02T08:22:21.984Z,56.89
2023-04-02T08:25:25.176Z,58.23
2023-04-02T08:28:28.698Z,58.44
2023-04-02T08:31:32.464Z,56.23
2023-04-02T08:34:36.009Z,56.51
2023-04-02T08:37:39.491Z,55.28
2023-04-02T08:40:45.664Z,55.66
2023-04-02T08:44:29.815Z,54.59
2023-04-02T08:47:41.184Z,50.95
2023-04-02T08:50:45.976Z,52.72
2023-04-02T08:53:50.581Z,52.89
2023-04-02T08:57:06.688Z,53.50
2023-04-02T09:00:13.776Z,54.19
2023-04-02T09:03:28.013Z,53.96
2023-04-02T09:06:31.813Z,56.63
2023-04-02T09:09:38.314Z,55.94
2023-04-02T09:12:47.149Z,57.82
2023-04-02T09:15:53.673Z,56.73
2023-04-02T09:18:57.184Z,56.22
2023-04-02T09:22:20.945Z,57.62
2023-04-02T09:25:32.449Z,58.01
2023-04-02T09:28:36.397Z,57.09
2023-04-02T09:31:45.740Z,56.87
2023-04-02T09:34:49.028Z,56.32
2023-04-02T09:38:17.521Z,55.72
2023-04-02T09:41:21.150Z,55.13
2023-04-02T09:44:31.285Z,54.41
2023-04-02T09:47:34.499Z,54.60
2023-04-02T09:50:39.152Z,52.66
2023-04-02T09:53:43.779Z,54.28
2023-04-02T09:57:02.311Z,53.83
2023-04-02T10:00:31.392Z,52.70
2023-04-02T10:03:46.684Z,55.60
2023-04-02T10:06:50.908Z,54.64
2023-04-02T10:10:04.633Z,51.96
2023-04-02T10:13:32.014Z,53.69
2023-04-02T10:16:52.539Z,52.63
2023-04-02T10:20:01.750Z,52.11
2023-04-02T10:23:06.462Z,51.82
2023-04-02T10:26:17.216Z,54.27
2023-04-02T10:29:36.213Z,51.82
2023-04-02T10:32:48.996Z,50.71
2023-04-02T10:36:23.580Z,53.12
2023-04-02T10:39:39.681Z,51.66
2023-04-02T10:43:10.287Z,51.55
2023-04-02T10:46:32.452Z,50.67
2023-04-02T10:49:59.616Z,52.95
2023-04-02T10:53:16.181Z,50.91
2023-04-02T10:56:22.958Z,50.69
2023-04-02T10:59:35.650Z,48.11
2023-04-02T11:03:08.277Z,48.68
2023-04-02T11:06:23.193Z,47.50
2023-04-02T11:09:31.928Z,46.23
2023-04-02T11:12:44.829Z,47.70
2023-04-02T11:15:48.842Z,48.26
2023-04-02T11:19:32.026Z,48.03
2023-04-02T11:22:35.720Z,47.81
2023-04-02T11:25:39.831Z,49.95
2023-04-02T11:28:44.445Z,51.94
2023-04-02T11:31:49.088Z,49.64
2023-04-02T11:35:05.950Z,51.17
2023-04-02T11:38:10.391Z,47.25
2023-04-02T11:41:14.367Z,49.37
2023-04-02T11:44:24.360Z,49.49
2023-04-02T11:47:30.569Z,50.25
2023-04-02T11:50:35.016Z,52.01
2023-04-02T11:53:42.819Z,49.86
2023-04-02T11:57:01.442Z,47.65
2023-04-02T12:00:31.079Z,49.74
2023-04-02T12:04:06.975Z,51.55
2023-04-02T12:07:18.089Z,47.25
2023-04-02T12:10:32.752Z,47.21
2023-04-02T12:13:42.472Z,47.03
2023-04-02T12:16:47.999Z,48.67
2023-04-02T12:19:55.551Z,45.70
2023-04-02T12:22:59.270Z,45.13
2023-04-02T12:26:24.300Z,44.35
2023-04-02T12:29:29.221Z,45.23
2023-04-02T12:32:33.397Z,45.93
2023-04-02T12:35:37.313Z,43.14
2023-04-02T12:38:52.526Z,46.34
2023-04-02T12:41:56.485Z,44.93
2023-04-02T12:45:00.450Z,46.64
2023-04-02T12:48:06.325Z,46.42
2023-04-02T12:51:11.123Z,45.73
2023-04-02T12:54:20.860Z,45.50
2023-04-02T12:57:27.159Z,45.48
2023-04-02T13:00:33.475Z,45.48
2023-04-02T13:03:38.095Z,46.90
2023-04-02T13:06:52.260Z,45.37
2023-04-02T13:10:04.570Z,43.31
2023-04-02T13:13:16.697Z,45.51
2023-04-02T13:16:19.947Z,45.40
2023-04-02T13:19:32.457Z,45.76
2023-04-02T13:22:36.750Z,45.89
2023-04-02T13:25:40.865Z,45.85
2023-04-02T13:28:57.128Z,45.32
2023-04-02T13:32:06.817Z,45.69
2023-04-02T13:35:10.071Z,43.98
2023-04-02T13:38:14.728Z,42.39
2023-04-02T13:41:22.751Z,42.85
2023-04-02T13:44:29.457Z,43.70
2023-04-02T13:47:32.674Z,43.48
2023-04-02T13:50:37.435Z,44.39
2023-04-02T13:53:42.393Z,42.89
2023-04-02T13:56:47.685Z,43.99
2023-04-02T13:59:50.851Z,42.70
2023-04-02T14:03:01.731Z,43.13
2023-04-02T14:06:24.036Z,42.77
2023-04-02T14:09:30.057Z,43.04
2023-04-02T14:12:40.110Z,43.56
2023-04-02T14:16:16.953Z,46.62
2023-04-02T14:20:06.074Z,51.85
2023-04-02T14:23:17.462Z,52.45
2023-04-02T14:26:50.491Z,53.35
2023-04-02T14:30:33.387Z,54.70
2023-04-02T14:33:59.004Z,57.56
2023-04-02T14:37:18.329Z,63.34
2023-04-02T14:40:27.855Z,66.62
2023-04-02T14:43:50.618Z,68.80
2023-04-02T14:47:09.463Z,71.66
2023-04-02T14:50:18.947Z,74.64
2023-04-02T14:53:34.088Z,82.27
2023-04-02T14:56:57.793Z,91.40
2023-04-02T15:00:17.124Z,95.80
2023-04-02T15:03:38.476Z,97.83
2023-04-02T15:07:00.231Z,100.00
2023-04-02T15:10:11.308Z,100.00
2023-04-02T15:13:23.353Z,100.00
2023-04-02T15:16:27.966Z,100.00
2023-04-02T15:19:33.366Z,100.00
2023-04-02T15:22:45.022Z,100.00
2023-04-02T15:25:58.915Z,100.00
2023-04-02T15:29:39.651Z,100.00
2023-04-02T15:32:44.506Z,100.00
2023-04-02T15:35:56.669Z,100.00
2023-04-02T15:39:00.574Z,100.00
2023-04-02T15:42:31.333Z,100.00
2023-04-02T15:46:13.684Z,100.00
2023-04-02T15:49:46.222Z,100.00
2023-04-02T15:53:04.975Z,100.00
2023-04-02T15:56:34.382Z,100.00
2023-04-02T16:00:11.562Z,100.00
2023-04-02T16:03:41.595Z,100.00
2023-04-02T16:07:11.219Z,100.00
2023-04-02T16:10:41.293Z,100.00
2023-04-02T16:13:47.779Z,100.00
2023-04-02T16:16:55.191Z,100.00
2023-04-02T16:20:20.635Z,100.00
2023-04-02T16:23:40.180Z,100.00
2023-04-02T16:27:15.389Z,100.00
2023-04-02T16:30:41.201Z,100.00
2023-04-02T16:33:57.253Z,100.00
2023-04-02T16:37:01.485Z,100.00
2023-04-02T16:40:21.700Z,100.00
2023-04-02T16:43:38.346Z,100.00
2023-04-02T16:47:00.794Z,100.00
2023-04-02T16:50:12.149Z,100.00
2023-04-02T16:53:27.349Z,100.00
2023-04-02T16:56:34.144Z,100.00
2023-04-02T16:59:42.338Z,100.00
2023-04-02T17:03:01.283Z,100.00
2023-04-02T17:06:09.891Z,100.00
2023-04-02T17:09:28.226Z,100.00
2023-04-02T17:13:14.449Z,100.00
2023-04-02T17:16:32.223Z,100.00
2023-04-02T17:19:36.934Z,100.00
2023-04-02T17:22:42.388Z,100.00
2023-04-02T17:25:56.860Z,100.00
2023-04-02T17:29:07.908Z,100.00
2023-04-02T17:32:26.993Z,100.00
2023-04-02T17:36:02.428Z,100.00
2023-04-02T17:39:25.171Z,100.00
2023-04-02T17:42:46.023Z,100.00
2023-04-02T17:45:57.303Z,100.00
2023-04-02T17:49:21.837Z,100.00
2023-04-02T17:52:54.075Z,100.00
2023-04-02T17:56:04.048Z,100.00
2023-04-02T17:59:27.376Z,100.00
2023-04-02T18:02:49.495Z,100.00
2023-04-02T18:06:09.040Z,100.00
2023-04-02T18:09:20.466Z,100.00
2023-04-02T18:12:46.426Z,100.00
2023-04-02T18:16:28.939Z,100.00
2023-04-02T18:20:03.159Z,97.20
2023-04-02T18:23:33.114Z,95.98
2023-04-02T18:26:51.731Z,97.10
2023-04-02T18:30:14.178Z,91.99
2023-04-02T18:33:34.540Z,91.95
2023-04-02T18:37:06.049Z,92.69
2023-04-02T18:40:41.841Z,91.75
2023-04-02T18:44:02.901Z,88.00
2023-04-02T18:47:28.864Z,86.72
2023-04-02T18:50:37.754Z,86.17
2023-04-02T18:53:44.447Z,83.57
2023-04-02T18:56:49.288Z,85.40
2023-04-02T19:00:05.313Z,86.13
2023-04-02T19:03:14.730Z,84.67
2023-04-02T19:06:29.686Z,85.45
2023-04-02T19:09:38.332Z,81.63
2023-04-02T19:12:43.426Z,84.48
2023-04-02T19:16:00.912Z,81.75
2023-04-02T19:19:18.083Z,82.12
2023-04-02T19:22:44.575Z,82.92
2023-04-02T19:25:53.250Z,83.34
2023-04-02T19:29:39.106Z,83.56
2023-04-02T19:33:18.278Z,83.78
2023-04-02T19:36:46.409Z,84.81
2023-04-02T19:40:05.532Z,83.64
2023-04-02T19:43:11.526Z,84.86
2023-04-02T19:46:17.199Z,84.92
2023-04-02T19:49:29.575Z,83.77
2023-04-02T19:52:37.084Z,81.94
2023-04-02T19:55:46.544Z,80.91
2023-04-02T19:58:52.033Z,80.93
2023-04-02T20:01:59.639Z,81.93
2023-04-02T20:05:03.848Z,80.96
2023-04-02T20:08:11.571Z,81.28
2023-04-02T20:11:18.224Z,81.54
2023-04-02T20:14:23.297Z,82.03
2023-04-02T20:17:29.457Z,83.54
2023-04-02T20:20:35.501Z,84.14
2023-04-02T20:23:41.094Z,83.28
2023-04-02T20:26:46.637Z,84.11
2023-04-02T20:30:07.469Z,84.15
2023-04-02T20:33:12.160Z,84.25
2023-04-02T20:36:18.007Z,85.02
2023-04-02T20:39:22.134Z,84.76
2023-04-02T20:42:27.193Z,85.55
2023-04-02T20:45:32.494Z,85.92
2023-04-02T20:48:36.926Z,86.29
2023-04-02T20:51:59.182Z,88.23
2023-04-02T20:55:19.651Z,89.21
2023-04-02T20:58:22.999Z,89.98
2023-04-02T21:01:30.250Z,90.48
2023-04-02T21:04:33.392Z,88.56
2023-04-02T21:07:36.987Z,89.71
2023-04-02T21:10:40.893Z,88.57
2023-04-02T21:13:44.846Z,87.32
2023-04-02T21:16:48.076Z,86.37
2023-04-02T21:19:52.641Z,86.74
2023-04-02T21:22:55.858Z,84.22
2023-04-02T21:26:06.397Z,82.95
2023-04-02T21:29:11.613Z,81.84
2023-04-02T21:32:21.294Z,80.08
2023-04-02T21:35:25.359Z,81.47
2023-04-02T21:38:28.946Z,81.68
2023-04-02T21:41:34.994Z,80.20
2023-04-02T21:44:38.616Z,81.20
2023-04-02T21:47:43.129Z,81.54
2023-04-02T21:50:46.782Z,82.15
2023-04-02T21:53:51.025Z,83.18
2023-04-02T21:56:54.479Z,82.07
2023-04-02T21:59:57.703Z,81.98
2023-04-02T22:03:01.339Z,81.64
2023-04-02T22:06:10.622Z,82.35
2023-04-02T22:09:19.543Z,82.26
2023-04-02T22:12:24.100Z,82.15
2023-04-02T22:15:27.203Z,81.09
2023-04-02T22:18:31.517Z,80.74
2023-04-02T22:21:36.348Z,84.12
2023-04-02T22:24:39.762Z,83.07
2023-04-02T22:27:42.896Z,81.42
2023-04-02T22:30:46.486Z,81.54
2023-04-02T22:33:50.706Z,80.71
2023-04-02T22:36:54.066Z,80.34
2023-04-02T22:39:57.263Z,80.80
2023-04-02T22:43:00.989Z,80.46
2023-04-02T22:46:05.804Z,81.58
2023-04-02T22:49:11.118Z,81.04
2023-04-02T22:52:14.265Z,81.64
2023-04-02T22:55:18.167Z,81.54
2023-04-02T22:58:22.738Z,82.35
2023-04-02T23:01:29.818Z,82.17
2023-04-02T23:04:33.656Z,81.98
2023-04-02T23:07:37.141Z,82.81
2023-04-02T23:10:40.493Z,81.86
2023-04-02T23:13:44.762Z,82.48
2023-04-02T23:16:47.779Z,82.87
2023-04-02T23:19:51.161Z,81.31
2023-04-02T23:22:57.181Z,83.70
2023-04-02T23:26:05.584Z,81.19
2023-04-02T23:29:09.921Z,81.59
2023-04-02T23:32:13.455Z,83.00
2023-04-02T23:35:17.259Z,81.52
2023-04-02T23:38:20.757Z,82.82
2023-04-02T23:41:26.730Z,82.73
2023-04-02T23:44:30.542Z,83.08
2023-04-02T23:47:33.643Z,82.25
2023-04-02T23:50:37.204Z,80.92
2023-04-02T23:53:40.745Z,81.22
2023-04-02T23:56:44.158Z,81.05
2023-04-02T23:59:47.531Z,80.21
